Time;durP1;ratioP1;P1;durP2;ratioP2;P2;SDS_P1;SDS_P2;PMS_P1;PMS_P2;Temp;Humidity;BMP_temperature;BMP_pressure;BME280_temperature;BME280_humidity;BME280_pressure;Samples;Min_cycle;Max_cycle;Signal;HPM_P1;HPM_P2
2022/08/03 00:01:23;;;;;;;4.60;2.10;;;;;;;25.48;43.78;99504.47;3140934;28;20048;-61
2022/08/03 00:02:55;;;;;;;6.47;1.90;;;;;;;25.46;43.34;99509.97;3138191;28;20048;-62
2022/08/03 00:04:27;;;;;;;2.60;1.98;;;;;;;25.50;43.84;99511.28;3135536;28;20357;-61
2022/08/03 00:05:59;;;;;;;5.38;1.88;;;;;;;25.49;43.37;99506.94;3135448;28;20044;-61
2022/08/03 00:07:31;;;;;;;6.05;2.00;;;;;;;25.45;43.74;99500.31;3135384;28;20052;-62
2022/08/03 00:09:05;;;;;;;5.38;1.77;;;;;;;25.49;43.48;99504.28;3135328;28;20402;-62
2022/08/03 00:10:37;;;;;;;4.28;1.77;;;;;;;25.49;43.30;99498.94;3135561;28;20060;-62
2022/08/03 00:12:09;;;;;;;5.63;1.80;;;;;;;25.50;42.96;99503.31;3135158;28;20048;-62
2022/08/03 00:13:40;;;;;;;3.70;2.10;;;;;;;25.47;42.84;99492.97;3135493;28;20093;-62
2022/08/03 00:15:14;;;;;;;3.03;1.80;;;;;;;25.47;42.24;99498.31;3146106;28;20057;-61
2022/08/03 00:16:46;;;;;;;;;;;;;;;25.44;42.75;99501.31;3140988;28;20056;-61
2022/08/03 00:18:18;;;;;;;2.55;1.48;;;;;;;25.42;42.74;99506.00;3135462;28;19931;-62
2022/08/03 00:19:50;;;;;;;5.97;1.60;;;;;;;25.40;42.61;99505.31;3135131;28;20060;-61
2022/08/03 00:21:22;;;;;;;2.42;1.73;;;;;;;25.36;42.74;99504.84;3135520;28;20425;-62
2022/08/03 00:22:54;;;;;;;4.85;1.70;;;;;;;25.36;42.58;99501.34;3135371;28;20049;-61
2022/08/03 00:24:26;;;;;;;2.08;1.60;;;;;;;25.36;42.67;99504.00;3135249;28;20053;-61
2022/08/03 00:25:58;;;;;;;2.78;1.67;;;;;;;25.35;42.98;99505.00;3135352;28;20045;-61
2022/08/03 00:27:30;;;;;;;4.78;1.98;;;;;;;25.33;42.88;99502.50;3135571;28;20056;-62
2022/08/03 00:29:02;;;;;;;2.03;1.60;;;;;;;25.32;42.88;99506.19;3135203;28;20057;-61
2022/08/03 00:30:35;;;;;;;1.88;1.48;;;;;;;25.30;43.13;99502.03;3135425;28;20064;-61
2022/08/03 00:32:07;;;;;;;3.33;1.67;;;;;;;25.28;42.95;99501.38;3135090;28;20104;-62
2022/08/03 00:33:39;;;;;;;2.53;1.60;;;;;;;25.26;43.04;99506.03;3135368;28;20429;-62
2022/08/03 00:35:11;;;;;;;2.97;1.65;;;;;;;25.21;43.55;99500.41;3134881;28;20072;-62
2022/08/03 00:36:43;;;;;;;1.90;1.60;;;;;;;25.18;43.33;99507.72;3134954;28;20346;-61
2022/08/03 00:38:15;;;;;;;5.35;1.83;;;;;;;25.19;43.09;99504.03;3135026;28;20053;-61
2022/08/03 00:39:46;;;;;;;3.63;1.85;;;;;;;25.16;43.45;99509.72;3135060;28;20048;-61
2022/08/03 00:41:18;;;;;;;3.63;1.60;;;;;;;25.14;43.30;99511.75;3135055;28;20053;-61
2022/08/03 00:42:52;;;;;;;3.63;2.28;;;;;;;25.13;43.72;99503.88;3134527;28;20389;-61
2022/08/03 00:44:24;;;;;;;2.58;1.48;;;;;;;25.09;43.79;99506.06;3135436;28;20049;-61
2022/08/03 00:45:57;;;;;;;6.13;1.60;;;;;;;25.10;44.00;99512.19;3135265;28;20045;-61
2022/08/03 00:47:28;;;;;;;3.47;1.70;;;;;;;25.04;44.28;99508.38;3135198;28;20074;-62
2022/08/03 00:49:00;;;;;;;5.90;1.98;;;;;;;25.00;44.53;99507.06;3134874;28;20424;-61
2022/08/03 00:50:35;;;;;;;4.40;1.50;;;;;;;24.95;44.63;99504.91;3135045;28;20075;-61
2022/08/03 00:52:09;;;;;;;1.80;1.60;;;;;;;24.91;44.58;99508.09;3134852;28;20049;-61
2022/08/03 00:53:41;;;;;;;6.93;2.05;;;;;;;24.89;44.81;99513.56;3135035;28;20045;-61
2022/08/03 00:55:13;;;;;;;1.60;1.50;;;;;;;24.89;44.56;99523.41;3137560;28;20487;-62
2022/08/03 00:56:45;;;;;;;6.72;1.77;;;;;;;24.82;45.20;99499.28;3134957;28;20057;-61
2022/08/03 00:58:17;;;;;;;2.53;1.98;;;;;;;24.84;45.01;99507.09;3134994;28;20049;-61
2022/08/03 00:59:48;;;;;;;2.47;1.92;;;;;;;24.81;45.20;99499.44;3134822;28;20052;-62
2022/08/03 01:01:22;;;;;;;4.35;1.80;;;;;;;24.77;45.47;99514.91;3139747;28;20058;-61
2022/08/03 01:02:54;;;;;;;5.78;1.83;;;;;;;24.74;45.60;99504.59;3138016;28;20496;-62
2022/08/03 01:04:25;;;;;;;5.87;2.20;;;;;;;24.71;45.57;99510.25;3134847;28;20059;-61
2022/08/03 01:06:06;;;;;;;2.90;1.70;;;;;;;24.71;45.55;99504.94;3134897;28;20396;-61
2022/08/03 01:07:53;;;;;;;2.33;1.90;;;;;;;24.67;45.92;99514.28;3134865;28;20053;-61
2022/08/03 01:09:31;;;;;;;2.88;1.90;;;;;;;24.63;45.50;99513.75;3139648;28;20048;-61
2022/08/03 01:11:10;;;;;;;4.03;1.60;;;;;;;24.64;45.58;99514.56;3135416;28;20060;-61
2022/08/03 01:12:48;;;;;;;3.28;2.15;;;;;;;24.62;45.34;99509.44;3134971;28;20048;-61
2022/08/03 01:14:27;;;;;;;2.97;1.70;;;;;;;24.62;45.34;99512.09;3139711;28;20063;-62
2022/08/03 01:16:02;;;;;;;8.52;1.80;;;;;;;24.61;45.17;99514.91;3145706;28;20373;-61
2022/08/03 01:17:40;;;;;;;2.13;1.77;;;;;;;24.58;45.64;99516.09;3135136;28;20048;-61
2022/08/03 01:19:31;;;;;;;4.57;1.60;;;;;;;24.57;45.79;99518.91;3134525;28;20465;-62
2022/08/03 01:21:11;;;;;;;2.15;1.73;;;;;;;24.55;45.78;99516.44;3134686;28;20056;-61
2022/08/03 01:23:06;;;;;;;4.28;1.70;;;;;;;24.51;45.72;99515.09;3134534;28;20053;-61
2022/08/03 01:24:55;;;;;;;4.45;1.63;;;;;;;24.49;45.97;99517.06;3134768;28;20049;-61
2022/08/03 01:26:55;;;;;;;2.78;1.88;;;;;;;24.45;46.51;99519.22;3134576;28;20510;-61
2022/08/03 01:28:56;;;;;;;2.20;1.77;;;;;;;24.44;46.42;99524.75;3134728;28;20053;-61
2022/08/03 01:30:32;;;;;;;4.03;1.60;;;;;;;24.41;46.39;99517.06;3134541;28;20052;-61
2022/08/03 01:32:11;;;;;;;2.53;1.88;;;;;;;24.40;46.72;99528.69;3134603;28;20063;-61
2022/08/03 01:33:46;;;;;;;3.35;1.75;;;;;;;24.38;46.88;99526.19;3134614;28;20428;-61
2022/08/03 01:35:32;;;;;;;2.88;1.73;;;;;;;24.37;46.68;99515.69;3134674;28;20055;-62
2022/08/03 01:37:07;;;;;;;4.35;1.73;;;;;;;24.36;46.64;99527.34;3134512;28;20048;-62
2022/08/03 01:38:43;;;;;;;4.80;2.03;;;;;;;24.32;46.73;99526.03;3134673;28;20052;-62
2022/08/03 01:40:17;;;;;;;1.70;1.60;;;;;;;24.32;47.01;99520.72;3134496;28;20411;-61
2022/08/03 01:41:53;;;;;;;3.30;1.75;;;;;;;24.33;46.84;99517.88;3134757;28;20052;-61
2022/08/03 01:43:27;;;;;;;3.42;2.10;;;;;;;24.30;47.18;99519.03;3134418;28;20049;-61
2022/08/03 01:45:01;;;;;;;5.22;1.90;;;;;;;24.28;47.44;99510.41;3134669;28;20063;-62
2022/08/03 01:46:37;;;;;;;2.42;1.70;;;;;;;24.29;47.70;99513.88;3134649;28;20271;-61
2022/08/03 01:48:10;;;;;;;2.60;2.10;;;;;;;24.29;47.58;99516.53;3134517;28;20049;-61
2022/08/03 01:49:44;;;;;;;4.53;1.73;;;;;;;24.26;47.53;99507.06;3140984;28;20059;-61
2022/08/03 01:51:18;;;;;;;4.07;2.53;;;;;;;24.25;47.88;99521.38;3135588;28;20135;-61
2022/08/03 01:52:51;;;;;;;2.88;2.30;;;;;;;24.21;47.75;99516.53;3134635;28;20049;-61
2022/08/03 01:54:24;;;;;;;2.83;1.75;;;;;;;24.10;47.83;99515.00;3135565;28;20064;-61
2022/08/03 01:55:58;;;;;;;2.97;1.98;;;;;;;24.05;48.09;99522.66;3137068;28;20059;-61
2022/08/03 01:57:31;;;;;;;4.47;2.22;;;;;;;23.98;48.42;99513.66;3137074;28;20049;-61
2022/08/03 01:59:03;;;;;;;2.38;1.80;;;;;;;23.94;48.27;99517.63;3137211;28;20409;-61
2022/08/03 02:00:38;;;;;;;4.88;2.25;;;;;;;23.90;48.57;99518.94;3136978;28;20052;-61
2022/08/03 02:02:12;;;;;;;5.95;2.15;;;;;;;23.84;48.36;99521.28;3145391;28;20748;-61
2022/08/03 02:03:46;;;;;;;4.07;1.73;;;;;;;23.82;48.56;99525.06;3137211;28;20056;-61
2022/08/03 02:05:20;;;;;;;4.50;2.17;;;;;;;23.80;48.31;99516.41;3136991;28;20077;-62
2022/08/03 02:06:53;;;;;;;2.92;1.90;;;;;;;23.80;48.45;99527.06;3137036;28;20049;-62
2022/08/03 02:08:26;;;;;;;3.47;2.08;;;;;;;23.79;48.32;99526.22;3136925;28;20060;-61
2022/08/03 02:10:00;;;;;;;2.72;1.90;;;;;;;23.80;48.06;99522.56;3147993;28;20170;-61
2022/08/03 02:11:34;;;;;;;3.50;2.10;;;;;;;23.77;48.29;99522.06;3138780;28;20072;-61
2022/08/03 02:13:08;;;;;;;4.25;2.13;;;;;;;23.71;48.39;99526.19;3136835;28;20416;-61
2022/08/03 02:14:40;;;;;;;;;;;;;;;23.62;48.48;99514.66;3140933;28;20974;-61
2022/08/03 02:16:14;;;;;;;5.25;2.10;;;;;;;23.56;48.68;99515.31;3146329;28;19921;-61
2022/08/03 02:17:48;;;;;;;2.90;2.33;;;;;;;23.51;48.87;99522.09;3137255;28;20056;-61
2022/08/03 02:19:19;;;;;;;4.05;2.08;;;;;;;23.46;49.17;99525.22;3136559;28;20048;-61
2022/08/03 02:20:52;;;;;;;4.65;2.28;;;;;;;23.45;48.88;99528.03;3136691;28;20079;-61
2022/08/03 02:22:25;;;;;;;2.92;2.25;;;;;;;23.42;48.92;99523.03;3137526;28;20053;-61
2022/08/03 02:23:57;;;;;;;4.22;1.83;;;;;;;23.36;49.24;99530.66;3136931;28;20057;-61
2022/08/03 02:25:30;;;;;;;3.85;2.05;;;;;;;23.35;49.22;99522.84;3136873;28;20049;-61
2022/08/03 02:27:05;;;;;;;;;;;;;;;23.29;49.12;99526.13;3137180;28;20052;-61
2022/08/03 02:28:41;;;;;;;6.10;2.40;;;;;;;23.27;49.14;99518.31;3136870;28;19935;-61
2022/08/03 02:30:14;;;;;;;3.85;1.65;;;;;;;23.26;49.02;99523.81;3136686;28;20646;-60
2022/08/03 02:31:48;;;;;;;3.17;1.87;;;;;;;23.25;49.05;99525.63;3136959;28;20049;-61
2022/08/03 02:33:26;;;;;;;7.35;1.70;;;;;;;23.22;48.87;99525.94;3136397;28;20068;-61
2022/08/03 02:34:59;;;;;;;4.28;1.90;;;;;;;23.17;49.13;99526.41;3136518;28;20415;-62
2022/08/03 02:36:37;;;;;;;5.22;1.58;;;;;;;23.14;49.22;99520.56;3136821;28;20151;-61
2022/08/03 02:38:12;;;;;;;4.45;2.22;;;;;;;23.10;49.23;99530.69;3136622;28;20053;-61
2022/08/03 02:39:45;;;;;;;2.92;1.73;;;;;;;23.05;49.19;99524.16;3136521;28;20075;-61
2022/08/03 02:41:22;;;;;;;3.60;1.77;;;;;;;23.02;49.67;99529.78;3136627;28;20165;-61
2022/08/03 02:42:59;;;;;;;5.15;2.10;;;;;;;22.93;49.79;99524.38;3136653;28;20049;-62
2022/08/03 02:44:31;;;;;;;3.42;1.90;;;;;;;22.98;49.49;99525.75;3136521;28;20146;-62
2022/08/03 02:46:05;;;;;;;3.00;2.03;;;;;;;23.02;49.05;99525.31;3136763;28;20109;-61
2022/08/03 02:47:40;;;;;;;4.22;2.03;;;;;;;23.06;49.01;99529.31;3136411;28;20088;-61
2022/08/03 02:49:17;;;;;;;3.45;1.98;;;;;;;23.10;48.95;99535.13;3136808;28;20059;-63
2022/08/03 02:50:52;;;;;;;4.82;1.73;;;;;;;23.14;48.87;99526.72;3140952;28;20063;-61
2022/08/03 02:52:27;;;;;;;3.55;1.90;;;;;;;23.19;48.50;99528.91;3138885;28;20051;-62
2022/08/03 02:54:02;;;;;;;3.78;1.88;;;;;;;23.22;48.84;99523.28;3136379;28;20048;-61
2022/08/03 02:55:35;;;;;;;7.80;1.60;;;;;;;23.24;48.51;99529.25;3136472;28;20060;-62
2022/08/03 02:57:09;;;;;;;4.07;2.00;;;;;;;23.24;48.24;99537.22;3136227;28;20400;-61
2022/08/03 02:58:43;;;;;;;4.28;1.80;;;;;;;23.27;48.79;99534.25;3136421;28;20049;-62
2022/08/03 03:00:16;;;;;;;8.05;2.00;;;;;;;23.30;48.25;99539.25;3136374;28;20052;-62
2022/08/03 03:01:49;;;;;;;2.83;1.83;;;;;;;23.31;48.56;99543.59;3144965;28;20048;-62
2022/08/03 03:03:23;;;;;;;3.10;1.70;;;;;;;23.33;48.70;99540.75;3136394;28;20415;-62
2022/08/03 03:04:57;;;;;;;11.80;1.90;;;;;;;23.36;48.60;99543.09;3135796;28;20452;-62
2022/08/03 03:06:30;;;;;;;4.72;1.92;;;;;;;23.36;48.04;99537.78;3136277;28;20045;-62
2022/08/03 03:08:02;;;;;;;3.28;2.03;;;;;;;23.38;48.29;99541.97;3136388;28;20052;-61
2022/08/03 03:09:35;;;;;;;2.07;1.70;;;;;;;23.41;47.99;99548.78;3136396;28;20056;-62
2022/08/03 03:11:08;;;;;;;4.13;1.83;;;;;;;23.44;48.14;99542.31;3136116;28;20066;-62
2022/08/03 03:12:42;;;;;;;4.63;1.80;;;;;;;23.47;48.22;99539.34;3136069;28;20048;-62
2022/08/03 03:14:14;;;;;;;2.70;1.90;;;;;;;23.48;47.79;99541.84;3136809;28;20045;-62
2022/08/03 03:15:47;;;;;;;4.03;1.90;;;;;;;23.49;47.71;99543.53;3148223;28;20461;-62
2022/08/03 03:17:20;;;;;;;4.32;1.80;;;;;;;23.52;47.71;99543.19;3142083;28;20044;-62
2022/08/03 03:18:53;;;;;;;;;;;;;;;23.50;47.94;99547.84;3136389;28;20590;-61
2022/08/03 03:20:28;;;;;;;3.90;1.90;;;;;;;23.52;47.65;99542.38;3136185;28;19921;-63
2022/08/03 03:22:01;;;;;;;3.22;2.20;;;;;;;23.45;48.05;99546.63;3136272;28;20056;-61
2022/08/03 03:23:36;;;;;;;2.97;2.17;;;;;;;23.38;48.04;99546.44;3135991;28;20052;-61
2022/08/03 03:25:09;;;;;;;1.77;1.60;;;;;;;23.31;47.96;99542.75;3136175;28;20127;-61
2022/08/03 03:26:42;;;;;;;3.92;1.83;;;;;;;23.29;48.15;99550.88;3136391;28;20041;-61
2022/08/03 03:28:14;;;;;;;4.80;1.98;;;;;;;23.30;48.04;99563.16;3136126;28;20056;-61
2022/08/03 03:29:46;;;;;;;4.00;2.10;;;;;;;23.30;48.34;99559.69;3136043;28;20053;-62
2022/08/03 03:31:18;;;;;;;5.88;1.95;;;;;;;23.27;48.28;99560.81;3136011;28;20045;-61
2022/08/03 03:32:49;;;;;;;4.90;1.80;;;;;;;23.27;48.25;99566.13;3135991;28;20138;-62
2022/08/03 03:34:21;;;;;;;6.32;1.90;;;;;;;23.24;48.42;99563.78;3136058;28;20068;-61
2022/08/03 03:35:54;;;;;;;15.43;1.60;;;;;;;23.22;48.63;99568.44;3135954;28;20045;-61
2022/08/03 03:37:27;;;;;;;5.80;1.90;;;;;;;23.22;48.53;99565.78;3135832;28;20101;-61
2022/08/03 03:38:58;;;;;;;3.65;1.98;;;;;;;23.24;48.46;99562.97;3136229;28;20055;-61
2022/08/03 03:40:30;;;;;;;3.92;1.90;;;;;;;23.23;48.76;99567.44;3135590;28;20049;-61
2022/08/03 03:42:03;;;;;;;2.22;1.50;;;;;;;23.26;48.56;99572.44;3135985;28;20044;-61
2022/08/03 03:43:34;;;;;;;3.10;1.83;;;;;;;23.29;48.09;99572.13;3135765;28;20473;-61
2022/08/03 03:45:08;;;;;;;4.45;1.85;;;;;;;23.31;47.96;99569.34;3136100;28;20049;-61
2022/08/03 03:46:40;;;;;;;5.97;2.00;;;;;;;23.32;48.08;99577.13;3135708;28;20369;-62
2022/08/03 03:48:11;;;;;;;3.20;1.80;;;;;;;23.29;48.26;99580.09;3135837;28;20048;-61
2022/08/03 03:49:43;;;;;;;4.50;1.55;;;;;;;23.31;48.16;99580.78;3136052;28;20045;-61
2022/08/03 03:51:16;;;;;;;6.30;2.10;;;;;;;23.30;48.13;99580.94;3135850;28;20056;-61
2022/08/03 03:52:47;;;;;;;2.58;1.30;;;;;;;23.26;48.25;99577.75;3135660;28;20079;-61
2022/08/03 03:54:20;;;;;;;3.10;2.20;;;;;;;23.24;48.40;99578.91;3135625;28;20068;-61
2022/08/03 03:55:52;;;;;;;3.80;2.38;;;;;;;23.21;48.48;99576.56;3135822;28;20052;-61
2022/08/03 03:57:24;;;;;;;6.38;2.10;;;;;;;23.15;48.53;99581.50;3135641;28;20041;-61
2022/08/03 03:58:56;;;;;;;3.60;2.20;;;;;;;23.12;48.29;99588.94;3135612;28;20049;-61
2022/08/03 04:00:27;;;;;;;3.60;2.33;;;;;;;23.08;48.76;99585.78;3135786;28;20048;-61
2022/08/03 04:02:00;;;;;;;3.50;1.90;;;;;;;23.11;48.61;99585.47;3144352;28;20421;-61
2022/08/03 04:03:31;;;;;;;5.10;1.85;;;;;;;23.12;48.48;99588.94;3135680;28;20064;-60
2022/08/03 04:11:00;;;;;;;6.32;2.10;;;;;;;23.06;48.56;99595.72;3121486;28;20431;-62
2022/08/03 04:12:32;;;;;;;6.60;2.15;;;;;;;23.05;48.29;99593.22;3123890;28;20428;-64
2022/08/03 04:14:08;;;;;;;1.92;1.50;;;;;;;22.98;48.90;99594.81;3135565;28;20400;-62
2022/08/03 04:15:41;;;;;;;6.53;1.98;;;;;;;22.95;48.94;99590.63;3147336;28;20056;-63
2022/08/03 04:17:14;;;;;;;3.42;1.90;;;;;;;22.93;49.24;99598.75;3135917;28;20068;-60
2022/08/03 04:18:51;;;;;;;6.30;2.15;;;;;;;22.91;48.89;99594.56;3138057;28;20527;-61
2022/08/03 04:20:23;;;;;;;7.10;2.13;;;;;;;22.92;49.01;99599.75;3135061;28;20400;-60
2022/08/03 04:22:00;;;;;;;3.55;1.50;;;;;;;22.99;48.84;99604.47;3135293;28;20510;-61
2022/08/03 04:23:34;;;;;;;5.78;2.40;;;;;;;22.96;48.95;99602.94;3135309;28;20061;-61
2022/08/03 04:25:10;;;;;;;7.35;2.30;;;;;;;22.91;48.86;99602.53;3135435;28;20083;-61
2022/08/03 04:26:43;;;;;;;3.58;1.83;;;;;;;22.94;48.93;99604.88;3135188;28;20059;-61
2022/08/03 04:28:14;;;;;;;;;;;;;;;22.93;49.06;99603.22;3135627;28;20053;-61
2022/08/03 04:29:49;;;;;;;4.68;1.98;;;;;;;22.92;48.90;99607.69;3135261;28;19931;-61
2022/08/03 04:31:23;;;;;;;6.55;2.30;;;;;;;22.97;49.11;99607.25;3136604;28;20473;-61
2022/08/03 04:32:56;;;;;;;6.95;2.58;;;;;;;22.99;49.01;99612.44;3146580;28;20064;-61
2022/08/03 04:34:28;;;;;;;2.95;2.08;;;;;;;23.03;48.87;99608.47;3135422;28;20128;-61
2022/08/03 04:36:02;;;;;;;4.35;1.95;;;;;;;23.07;48.68;99609.81;3135231;28;20062;-61
2022/08/03 04:37:40;;;;;;;7.35;2.03;;;;;;;23.10;48.89;99609.50;3135259;28;20049;-61
2022/08/03 04:39:16;;;;;;;8.00;2.30;;;;;;;23.12;48.51;99607.53;3135187;28;20061;-62
2022/08/03 04:40:48;;;;;;;8.05;2.13;;;;;;;23.16;48.41;99607.09;3135024;28;20056;-62
2022/08/03 04:42:22;;;;;;;6.72;2.50;;;;;;;23.21;48.44;99614.56;3135121;28;20056;-62
2022/08/03 04:43:55;;;;;;;5.20;2.17;;;;;;;23.23;48.24;99615.28;3135468;28;20464;-63
2022/08/03 04:45:28;;;;;;;5.90;2.45;;;;;;;23.25;48.18;99618.63;3135150;28;20071;-63
2022/08/03 04:47:00;;;;;;;8.07;2.65;;;;;;;23.24;48.72;99611.59;3135030;28;20365;-60
2022/08/03 04:48:32;;;;;;;6.22;2.25;;;;;;;23.28;48.31;99622.75;3135185;28;20048;-61
2022/08/03 04:50:06;;;;;;;7.18;2.40;;;;;;;23.28;48.37;99614.78;3135389;28;20053;-61
2022/08/03 04:51:39;;;;;;;5.15;2.10;;;;;;;23.24;48.35;99616.94;3135017;28;20053;-61
2022/08/03 04:53:12;;;;;;;3.20;2.08;;;;;;;23.24;48.63;99616.94;3135196;28;20067;-61
2022/08/03 04:54:46;;;;;;;;;;;;;;;23.24;48.30;99622.25;3135452;28;20053;-61
2022/08/03 04:56:18;;;;;;;6.93;2.00;;;;;;;23.27;48.49;99623.75;3135121;28;20279;-61
2022/08/03 04:57:50;;;;;;;26.45;2.45;;;;;;;23.25;48.39;99625.72;3134955;28;20393;-61
2022/08/03 04:59:22;;;;;;;5.97;1.92;;;;;;;23.23;48.35;99620.59;3134830;28;20052;-61
2022/08/03 05:00:54;;;;;;;5.57;1.83;;;;;;;23.24;48.22;99622.25;3138403;28;20052;-61
2022/08/03 05:02:26;;;;;;;2.90;2.03;;;;;;;23.25;48.39;99626.59;3142131;28;20060;-61
2022/08/03 05:03:58;;;;;;;3.63;1.73;;;;;;;23.28;48.23;99620.09;3134903;28;20051;-61
2022/08/03 05:05:29;;;;;;;4.60;1.83;;;;;;;23.30;48.03;99621.63;3135022;28;20099;-61
2022/08/03 05:07:01;;;;;;;5.72;2.03;;;;;;;23.34;48.17;99616.84;3135177;28;20052;-61
2022/08/03 05:08:35;;;;;;;3.42;2.17;;;;;;;23.38;48.07;99627.00;3135236;28;20049;-61
2022/08/03 05:10:08;;;;;;;;;;;;;;;23.37;48.23;99629.81;3135496;28;20061;-61
2022/08/03 05:11:40;;;;;;;6.10;2.17;;;;;;;23.37;47.84;99635.97;3134961;28;19935;-61
2022/08/03 05:13:12;;;;;;;4.95;2.10;;;;;;;23.35;47.85;99627.31;3134700;28;20056;-61
2022/08/03 05:14:44;;;;;;;9.23;2.47;;;;;;;23.38;48.06;99634.97;3143381;28;20040;-61
2022/08/03 05:16:16;;;;;;;4.82;2.17;;;;;;;23.35;47.88;99632.63;3143859;28;20503;-61
2022/08/03 05:17:48;;;;;;;7.05;1.88;;;;;;;23.29;48.11;99630.59;3135012;28;20052;-62
2022/08/03 05:19:20;;;;;;;7.88;2.17;;;;;;;23.23;48.52;99631.22;3134703;28;20438;-61
2022/08/03 05:20:52;;;;;;;5.05;2.10;;;;;;;23.21;48.70;99627.88;3134902;28;20049;-61
2022/08/03 05:22:24;;;;;;;8.13;1.85;;;;;;;23.17;48.65;99634.47;3134527;28;20052;-62
2022/08/03 05:23:57;;;;;;;4.03;2.10;;;;;;;23.19;48.71;99629.84;3134598;28;20048;-61
2022/08/03 05:25:29;;;;;;;;;;;;;;;23.18;48.73;99633.47;3135359;28;20382;-61
2022/08/03 05:27:01;;;;;;;6.32;2.67;;;;;;;23.19;48.67;99634.31;3142252;28;19920;-61
2022/08/03 05:28:33;;;;;;;10.48;2.22;;;;;;;23.20;48.76;99634.16;3140370;28;20455;-61
2022/08/03 05:30:05;;;;;;;8.25;2.60;;;;;;;23.23;48.46;99641.84;3134612;28;20493;-61
2022/08/03 05:31:37;;;;;;;7.18;2.05;;;;;;;23.22;48.73;99640.19;3135071;28;20052;-62
2022/08/03 05:33:09;;;;;;;6.57;2.80;;;;;;;23.27;48.51;99651.16;3134355;28;20480;-62
2022/08/03 05:34:41;;;;;;;6.63;2.60;;;;;;;23.33;48.34;99647.03;3134801;28;20057;-61
2022/08/03 05:36:13;;;;;;;11.00;2.25;;;;;;;23.34;48.59;99649.56;3134872;28;20093;-61
2022/08/03 05:37:45;;;;;;;8.80;2.63;;;;;;;23.38;48.31;99650.91;3134731;28;20143;-61
2022/08/03 05:39:19;;;;;;;4.97;2.38;;;;;;;23.42;48.11;99653.25;3134487;28;20552;-61
2022/08/03 05:40:50;;;;;;;;;;;;;;;23.45;48.35;99648.47;3135027;28;20048;-61
2022/08/03 05:42:22;;;;;;;9.57;2.50;;;;;;;23.46;48.14;99659.94;3134540;28;19920;-61
2022/08/03 05:43:55;;;;;;;3.35;2.33;;;;;;;23.47;48.33;99659.78;3134910;28;20476;-61
2022/08/03 05:45:26;;;;;;;9.73;2.33;;;;;;;23.51;48.14;99660.28;3134633;28;20048;-61
2022/08/03 05:46:58;;;;;;;10.05;2.30;;;;;;;23.57;48.26;99659.66;3134643;28;20060;-61
2022/08/03 05:48:30;;;;;;;10.02;2.95;;;;;;;23.65;48.11;99662.38;3134645;28;20052;-61
2022/08/03 05:50:01;;;;;;;10.23;3.00;;;;;;;23.75;48.08;99662.28;3134800;28;20064;-61
2022/08/03 05:51:34;;;;;;;11.18;2.03;;;;;;;23.82;47.67;99661.53;3134723;28;20092;-61
2022/08/03 05:53:06;;;;;;;8.10;2.28;;;;;;;23.83;47.43;99657.03;3141073;28;20063;-61
2022/08/03 05:54:39;;;;;;;3.70;2.53;;;;;;;23.87;47.33;99660.19;3134836;28;20068;-61
2022/08/03 05:56:11;;;;;;;;;;;;;;;23.88;47.42;99667.22;3135157;28;20040;-61
2022/08/03 05:57:45;;;;;;;6.43;2.38;;;;;;;23.91;47.31;99661.56;3134548;28;19932;-61
2022/08/03 05:59:18;;;;;;;6.97;2.10;;;;;;;23.93;47.60;99660.44;3134476;28;20488;-61
2022/08/03 06:00:50;;;;;;;5.43;2.40;;;;;;;23.94;47.33;99655.94;3135627;28;20478;-61
2022/08/03 06:02:21;;;;;;;5.53;2.30;;;;;;;23.91;47.46;99657.06;3141970;28;20085;-61
2022/08/03 06:03:53;;;;;;;4.80;2.38;;;;;;;23.98;47.01;99662.59;3134775;28;20045;-61
2022/08/03 06:05:27;;;;;;;7.10;2.70;;;;;;;24.04;46.84;99653.97;3134398;28;20080;-61
2022/08/03 06:06:59;;;;;;;4.40;2.22;;;;;;;24.11;47.20;99659.47;3134448;28;20080;-61
2022/08/03 06:08:31;;;;;;;8.05;2.40;;;;;;;24.19;47.20;99663.00;3134361;28;20055;-61
2022/08/03 06:10:05;;;;;;;8.23;2.95;;;;;;;24.23;46.62;99659.06;3134464;28;20134;-61
2022/08/03 06:11:37;;;;;;;4.93;2.35;;;;;;;24.20;46.42;99659.38;3134567;28;20053;-61
2022/08/03 06:13:09;;;;;;;8.07;2.47;;;;;;;24.23;46.51;99659.06;3134648;28;20045;-61
2022/08/03 06:14:41;;;;;;;5.38;2.60;;;;;;;24.30;46.14;99661.91;3138100;28;20456;-61
2022/08/03 06:16:13;;;;;;;6.57;2.40;;;;;;;24.38;46.53;99664.59;3143692;28;20049;-61
2022/08/03 06:17:47;;;;;;;4.97;2.33;;;;;;;24.46;46.23;99663.81;3134286;28;20045;-60
2022/08/03 06:19:19;;;;;;;3.15;2.13;;;;;;;24.54;45.86;99665.66;3134162;28;20984;-60
2022/08/03 06:20:51;;;;;;;9.18;2.45;;;;;;;24.60;46.04;99665.00;3146358;28;20357;-61
2022/08/03 06:22:23;;;;;;;5.05;2.35;;;;;;;24.64;45.51;99667.19;3135062;28;20064;-61
2022/08/03 06:23:55;;;;;;;6.75;2.67;;;;;;;24.69;45.35;99670.19;3134481;28;20068;-61
2022/08/03 06:25:29;;;;;;;4.00;2.05;;;;;;;24.75;44.95;99676.69;3134200;28;20048;-61
2022/08/03 06:27:01;;;;;;;8.40;2.75;;;;;;;24.82;44.70;99674.22;3134191;28;20048;-61
2022/08/03 06:28:32;;;;;;;4.93;2.53;;;;;;;24.88;44.86;99674.41;3134282;28;20401;-61
2022/08/03 06:30:05;;;;;;;10.95;4.22;;;;;;;24.94;44.64;99676.41;3134592;28;20056;-61
2022/08/03 06:31:36;;;;;;;12.25;3.55;;;;;;;24.99;44.67;99681.22;3134198;28;20052;-61
2022/08/03 06:33:08;;;;;;;9.95;4.03;;;;;;;25.06;44.38;99678.75;3144001;28;20097;-61
2022/08/03 06:34:40;;;;;;;17.27;5.60;;;;;;;25.10;44.55;99678.22;3134304;28;20053;-61
2022/08/03 06:36:12;;;;;;;8.88;2.58;;;;;;;25.12;44.10;99684.22;3134535;28;20107;-61
2022/08/03 06:37:44;;;;;;;8.45;2.60;;;;;;;25.15;44.40;99678.59;3134317;28;20072;-61
2022/08/03 06:39:17;;;;;;;5.95;2.78;;;;;;;25.19;44.02;99679.09;3134261;28;20132;-61
2022/08/03 06:40:50;;;;;;;7.07;2.90;;;;;;;25.23;44.36;99671.59;3135606;28;20120;-61
2022/08/03 06:42:22;;;;;;;;;;;;;;;25.28;44.19;99682.59;3137009;28;20057;-61
2022/08/03 06:43:53;;;;;;;8.18;2.92;;;;;;;25.35;44.51;99680.91;3136581;28;19928;-61
2022/08/03 06:45:25;;;;;;;7.05;2.60;;;;;;;25.42;44.00;99676.59;3136557;28;20049;-61
2022/08/03 06:46:57;;;;;;;21.50;4.73;;;;;;;25.47;44.36;99682.25;3136579;28;20070;-61
2022/08/03 06:48:29;;;;;;;6.72;2.90;;;;;;;25.54;44.12;99683.25;3136468;28;20727;-61
2022/08/03 06:50:01;;;;;;;8.98;3.05;;;;;;;25.62;44.49;99682.41;3136461;28;20440;-61
2022/08/03 06:51:33;;;;;;;10.00;2.75;;;;;;;25.71;43.84;99673.38;3140074;28;20052;-61
2022/08/03 06:53:06;;;;;;;4.97;2.80;;;;;;;25.77;43.85;99682.56;3136636;28;20404;-61
2022/08/03 06:54:38;;;;;;;5.72;2.45;;;;;;;25.76;43.52;99676.34;3136315;28;20468;-61
2022/08/03 06:56:10;;;;;;;7.93;2.45;;;;;;;25.76;42.94;99678.19;3136265;28;20052;-61
2022/08/03 06:57:42;;;;;;;11.10;2.10;;;;;;;25.74;43.09;99672.22;3136479;28;20052;-61
2022/08/03 06:59:14;;;;;;;9.27;3.13;;;;;;;25.76;42.76;99683.53;3136514;28;20334;-61
2022/08/03 07:00:46;;;;;;;9.45;2.47;;;;;;;25.82;43.13;99675.75;3136666;28;20071;-62
2022/08/03 07:02:19;;;;;;;6.90;2.70;;;;;;;25.86;43.30;99674.38;3144421;28;20135;-61
2022/08/03 07:03:50;;;;;;;5.53;3.13;;;;;;;25.94;42.89;99670.00;3136531;28;20049;-61
2022/08/03 07:05:22;;;;;;;10.02;2.97;;;;;;;25.98;42.65;99666.00;3136337;28;20423;-62
2022/08/03 07:06:54;;;;;;;8.45;2.80;;;;;;;26.01;42.86;99669.16;3136134;28;20771;-61
2022/08/03 07:08:27;;;;;;;8.23;3.50;;;;;;;26.10;42.55;99667.31;3143968;28;20143;-61
2022/08/03 07:21:37;;;;;;;3.78;2.00;;;;;;;27.36;39.89;99660.84;3145777;28;20398;-63
2022/08/03 07:23:09;;;;;;;3.72;2.20;;;;;;;27.34;39.33;99666.41;3144967;28;20432;-63
2022/08/03 07:24:41;;;;;;;5.50;2.10;;;;;;;27.35;39.85;99667.22;3145015;28;20455;-63
2022/08/03 07:26:13;;;;;;;6.55;2.67;;;;;;;27.31;39.83;99661.41;3145060;28;20318;-63
2022/08/03 07:27:46;;;;;;;4.55;2.17;;;;;;;27.29;39.94;99666.09;3144828;28;20056;-63
2022/08/03 07:29:18;;;;;;;4.18;2.38;;;;;;;27.34;39.69;99665.56;3139608;28;20075;-63
2022/08/03 07:30:50;;;;;;;5.57;2.03;;;;;;;27.42;40.00;99660.16;3145008;28;20104;-63
2022/08/03 07:32:22;;;;;;;16.50;2.75;;;;;;;27.53;39.85;99658.88;3138517;28;20067;-63
2022/08/03 07:33:54;;;;;;;9.55;2.45;;;;;;;27.64;39.82;99658.41;3144706;28;20056;-63
2022/08/03 07:35:26;;;;;;;6.43;2.65;;;;;;;27.67;39.81;99664.22;3144675;28;20075;-63
2022/08/03 07:36:59;;;;;;;8.57;2.42;;;;;;;27.77;39.80;99666.63;3144963;28;20059;-63
2022/08/03 07:38:31;;;;;;;3.20;2.75;;;;;;;27.86;39.70;99664.72;3144654;28;20040;-63
2022/08/03 07:40:05;;;;;;;5.82;3.22;;;;;;;27.98;39.65;99671.31;3144596;28;20057;-62